Time;durP1;ratioP1;P1;durP2;ratioP2;P2;SDS_P1;SDS_P2;PMS_P1;PMS_P2;Temp;Humidity;BMP_temperature;BMP_pressure;BME280_temperature;BME280_humidity;BME280_pressure;Samples;Min_cycle;Max_cycle;Signal;HPM_P1;HPM_P2
2021/05/13 00:00:41;;;;;;;30.45;7.07;;;10.40;92.60;;;;;;5017877;28;20261;-83
2021/05/13 00:03:07;;;;;;;22.42;6.57;;;10.40;92.50;;;;;;5043636;28;20040;-82
2021/05/13 00:05:33;;;;;;;17.85;5.43;;;10.40;92.50;;;;;;5041487;28;20048;-83
2021/05/13 00:07:59;;;;;;;20.27;7.05;;;10.30;92.40;;;;;;5029018;28;20488;-83
2021/05/13 00:10:26;;;;;;;23.67;6.82;;;10.30;92.50;;;;;;5029099;28;20103;-80
2021/05/13 00:12:57;;;;;;;29.15;7.07;;;10.20;92.50;;;;;;5043235;28;20519;-83
2021/05/13 00:15:25;;;;;;;20.90;6.28;;;10.20;92.60;;;;;;5038092;28;20041;-82
2021/05/13 00:17:52;;;;;;;28.17;7.68;;;10.10;92.70;;;;;;5052369;28;20037;-82
2021/05/13 00:20:22;;;;;;;25.38;8.02;;;10.10;92.70;;;;;;5041582;28;20086;-80
2021/05/13 00:22:49;;;;;;;19.65;6.93;;;10.10;92.80;;;;;;5035610;28;20041;-84
2021/05/13 00:25:15;;;;;;;32.92;8.07;;;10.00;92.80;;;;;;5044088;28;20072;-81
2021/05/13 00:27:41;;;;;;;36.40;8.63;;;10.10;93.00;;;;;;5025772;28;20398;-83
2021/05/13 00:30:08;;;;;;;27.85;7.70;;;10.00;92.90;;;;;;5045843;28;20041;-82
2021/05/13 00:32:36;;;;;;;23.50;7.88;;;10.00;92.90;;;;;;5046336;28;20135;-81
2021/05/13 00:35:07;;;;;;;29.58;7.65;;;10.00;92.90;;;;;;5045093;28;20048;-79
2021/05/13 00:37:34;;;;;;;30.95;7.40;;;10.00;93.00;;;;;;5057182;28;20261;-83
2021/05/13 00:40:00;;;;;;;28.00;8.27;;;10.00;93.10;;;;;;5046697;28;20057;-82
2021/05/13 00:42:26;;;;;;;17.98;6.75;;;10.00;93.10;;;;;;5017623;28;20045;-83
2021/05/13 00:44:56;;;;;;;27.70;7.72;;;10.00;93.10;;;;;;5034523;28;20072;-83
2021/05/13 00:47:23;;;;;;;26.60;8.05;;;10.00;93.10;;;;;;5042057;28;20025;-82
2021/05/13 00:49:49;;;;;;;19.10;7.57;;;10.00;93.10;;;;;;5046318;28;20033;-81
2021/05/13 00:52:18;;;;;;;23.92;7.03;;;9.90;93.20;;;;;;5026154;28;20453;-81
2021/05/13 00:54:44;;;;;;;22.58;7.13;;;9.90;93.30;;;;;;5016761;28;20033;-84
2021/05/13 00:57:13;;;;;;;25.75;7.65;;;9.90;93.30;;;;;;5038919;28;20079;-79
2021/05/13 00:59:44;;;;;;;23.15;7.75;;;9.90;93.30;;;;;;5066272;28;20474;-83
2021/05/13 01:02:11;;;;;;;27.77;7.82;;;9.80;93.30;;;;;;5038249;28;20318;-83
2021/05/13 01:04:37;;;;;;;23.85;8.00;;;9.80;93.30;;;;;;5055598;28;20037;-83
2021/05/13 01:07:04;;;;;;;31.55;7.75;;;9.80;93.40;;;;;;5018359;28;20484;-82
2021/05/13 01:09:32;;;;;;;30.95;7.60;;;9.80;93.40;;;;;;5033815;28;20041;-83
2021/05/13 01:12:05;;;;;;;25.52;7.93;;;9.80;93.40;;;;;;5029085;28;20057;-80
2021/05/13 01:19:39;;;;;;;30.13;8.60;;;9.70;93.50;;;;;;5038471;28;20506;-83
2021/05/13 01:22:05;;;;;;;22.98;8.05;;;9.70;93.50;;;;;;5037558;28;20057;-80
2021/05/13 01:24:31;;;;;;;30.27;8.98;;;9.70;93.50;;;;;;5033766;28;20024;-83
2021/05/13 01:26:57;;;;;;;21.15;8.02;;;9.70;93.60;;;;;;5036167;28;20029;-82
2021/05/13 01:29:26;;;;;;;25.27;7.65;;;9.70;93.60;;;;;;5023676;28;20470;-82
2021/05/13 01:31:54;;;;;;;23.17;8.27;;;9.70;93.70;;;;;;5052619;28;20044;-82
2021/05/13 01:34:21;;;;;;;25.05;8.52;;;9.70;93.70;;;;;;5018655;28;20036;-81
2021/05/13 01:36:47;;;;;;;26.40;8.68;;;9.60;93.60;;;;;;5038382;28;20055;-82
2021/05/13 01:39:14;;;;;;;25.52;8.35;;;9.60;93.70;;;;;;5050300;28;20120;-82
2021/05/13 01:41:42;;;;;;;21.65;7.45;;;9.60;93.90;;;;;;5049603;28;20041;-81
2021/05/13 01:44:09;;;;;;;27.08;7.97;;;9.60;93.70;;;;;;5032427;28;20116;-81
2021/05/13 01:46:36;;;;;;;27.42;8.57;;;9.60;94.00;;;;;;5054632;28;20036;-81
2021/05/13 01:49:02;;;;;;;30.65;8.70;;;9.60;93.80;;;;;;5051835;28;20037;-82
2021/05/13 01:51:28;;;;;;;27.40;8.77;;;9.60;93.70;;;;;;5042613;28;20037;-82
2021/05/13 01:53:54;;;;;;;27.85;8.52;;;9.60;94.00;;;;;;5035507;28;20134;-81
2021/05/13 01:56:20;;;;;;;26.95;8.95;;;9.60;93.90;;;;;;5008474;28;20095;-81
2021/05/13 01:58:46;;;;;;;23.88;9.20;;;9.60;93.80;;;;;;5026831;28;20064;-81
2021/05/13 02:01:14;;;;;;;31.52;9.85;;;9.60;94.00;;;;;;5045436;28;20138;-80
2021/05/13 02:03:41;;;;;;;27.83;9.85;;;9.60;93.90;;;;;;5034079;28;20047;-81
2021/05/13 02:06:07;;;;;;;30.38;9.63;;;9.60;93.80;;;;;;5044388;28;20048;-81
2021/05/13 02:08:32;;;;;;;27.17;9.45;;;9.60;93.90;;;;;;5040230;28;20036;-82
2021/05/13 02:11:02;;;;;;;23.85;8.85;;;9.60;93.90;;;;;;5015233;28;20484;-81
2021/05/13 02:13:28;;;;;;;27.55;9.75;;;9.60;94.00;;;;;;5043559;28;20033;-81
2021/05/13 02:15:54;;;;;;;30.42;10.77;;;9.60;94.00;;;;;;5027841;28;20036;-81
2021/05/13 02:18:20;;;;;;;34.90;10.77;;;9.60;93.90;;;;;;5029181;28;20292;-82
2021/05/13 02:20:50;;;;;;;26.42;9.68;;;9.60;94.00;;;;;;5031536;28;20070;-81
2021/05/13 02:23:16;;;;;;;28.63;9.75;;;9.60;93.90;;;;;;5037657;28;20146;-81
2021/05/13 02:25:45;;;;;;;26.20;9.15;;;9.60;93.90;;;;;;5032415;28;20029;-81
2021/05/13 02:28:11;;;;;;;30.13;9.63;;;9.60;94.00;;;;;;5047486;28;20035;-81
2021/05/13 02:30:37;;;;;;;29.17;9.98;;;9.60;93.90;;;;;;5060211;28;20028;-81
2021/05/13 02:33:03;;;;;;;29.23;9.38;;;9.60;94.20;;;;;;5046376;28;20435;-81
2021/05/13 02:35:29;;;;;;;28.85;11.38;;;9.60;93.80;;;;;;5041878;28;20040;-81
2021/05/13 02:37:55;;;;;;;28.05;9.40;;;9.60;93.90;;;;;;5062719;28;20040;-81
2021/05/13 02:40:21;;;;;;;26.52;9.57;;;9.60;93.90;;;;;;5069237;28;20041;-81
2021/05/13 02:42:47;;;;;;;27.80;8.93;;;9.60;93.90;;;;;;5033881;28;20041;-81
2021/05/13 02:45:14;;;;;;;19.88;9.77;;;9.60;93.80;;;;;;5031706;28;20481;-82
2021/05/13 02:47:40;;;;;;;23.88;9.07;;;9.60;93.90;;;;;;5058310;28;20631;-82
2021/05/13 02:50:08;;;;;;;20.73;8.68;;;9.60;93.80;;;;;;5042327;28;20112;-81
2021/05/13 02:52:34;;;;;;;24.75;9.52;;;9.60;93.70;;;;;;5024020;28;20060;-81
2021/05/13 02:55:00;;;;;;;25.75;9.45;;;9.60;93.80;;;;;;5037152;28;20471;-82
2021/05/13 02:57:26;;;;;;;20.40;9.65;;;9.60;93.80;;;;;;5035520;28;20071;-82
2021/05/13 02:59:58;;;;;;;26.13;9.30;;;9.60;93.90;;;;;;5018881;28;20052;-81
2021/05/13 03:02:24;;;;;;;23.85;10.15;;;9.60;93.80;;;;;;5048258;28;20419;-82
2021/05/13 03:04:50;;;;;;;25.63;9.68;;;9.60;93.70;;;;;;5041696;28;20063;-82
2021/05/13 03:07:15;;;;;;;23.35;9.10;;;9.50;93.70;;;;;;5003691;28;20402;-81
2021/05/13 03:09:45;;;;;;;24.63;8.98;;;9.60;93.70;;;;;;5037183;28;20496;-81
2021/05/13 03:12:11;;;;;;;26.23;9.13;;;9.60;93.80;;;;;;5038702;28;20420;-81
2021/05/13 03:14:38;;;;;;;29.42;9.20;;;9.50;93.70;;;;;;5042672;28;20068;-81
2021/05/13 03:17:04;;;;;;;27.17;8.90;;;9.50;93.70;;;;;;5025583;28;20317;-81
2021/05/13 03:19:40;;;;;;;24.27;8.52;;;9.60;93.70;;;;;;5028452;28;20033;-81
2021/05/13 03:22:11;;;;;;;26.35;9.18;;;9.50;93.60;;;;;;5035489;28;20321;-83
2021/05/13 03:24:44;;;;;;;24.48;8.60;;;9.50;93.60;;;;;;5047248;28;20043;-82
2021/05/13 03:29:52;;;;;;;22.75;9.63;;;9.60;93.70;;;;;;5023857;28;20540;-81
2021/05/13 03:32:18;;;;;;;21.42;8.57;;;9.50;93.60;;;;;;5044038;28;20037;-81
2021/05/13 03:34:43;;;;;;;22.75;8.45;;;9.60;93.70;;;;;;5030393;28;20385;-81
2021/05/13 03:37:10;;;;;;;19.25;8.40;;;9.60;93.70;;;;;;5028083;28;20041;-82
2021/05/13 03:39:36;;;;;;;26.10;10.02;;;9.50;93.70;;;;;;5045837;28;20037;-81
2021/05/13 03:42:04;;;;;;;21.27;8.95;;;9.50;93.60;;;;;;5042942;28;20393;-81
2021/05/13 03:44:30;;;;;;;20.85;9.18;;;9.50;93.60;;;;;;5041664;28;20414;-81
2021/05/13 03:46:56;;;;;;;25.90;10.75;;;9.50;93.70;;;;;;5027439;28;20043;-81
2021/05/13 03:49:21;;;;;;;24.73;10.40;;;9.50;93.70;;;;;;5028668;28;20032;-81
2021/05/13 03:51:47;;;;;;;18.27;9.02;;;9.50;93.60;;;;;;5023316;28;20024;-81
2021/05/13 03:54:13;;;;;;;23.48;8.95;;;9.50;93.60;;;;;;5040108;28;20051;-82
2021/05/13 03:56:39;;;;;;;28.02;9.18;;;9.50;93.60;;;;;;5040184;28;20037;-81
2021/05/13 03:59:11;;;;;;;17.15;9.30;;;9.50;93.70;;;;;;5048413;28;20044;-81
2021/05/13 04:02:03;;;;;;;;;;;9.50;93.70;;;;;;5029851;28;20060;-81
2021/05/13 04:04:33;;;;;;;19.45;9.18;;;9.40;93.70;;;;;;5021342;28;20558;-81
2021/05/13 04:06:59;;;;;;;27.27;9.20;;;9.40;93.50;;;;;;5046040;28;20126;-81
2021/05/13 04:09:25;;;;;;;22.05;9.63;;;9.40;93.60;;;;;;5037661;28;20041;-82
2021/05/13 04:11:53;;;;;;;23.40;9.20;;;9.40;93.70;;;;;;5042284;28;20040;-81
2021/05/13 04:14:21;;;;;;;20.90;9.00;;;9.40;93.70;;;;;;5037288;28;20033;-83
2021/05/13 04:16:52;;;;;;;22.17;9.90;;;9.30;93.60;;;;;;5022435;28;20029;-82
2021/05/13 04:19:19;;;;;;;25.92;9.82;;;9.40;93.70;;;;;;5024395;28;20139;-82
2021/05/13 04:21:45;;;;;;;20.88;9.63;;;9.40;93.70;;;;;;5047247;28;20592;-81
2021/05/13 04:24:13;;;;;;;29.27;10.52;;;9.40;93.80;;;;;;5025737;28;20033;-81
2021/05/13 04:26:40;;;;;;;26.75;10.18;;;9.40;93.70;;;;;;5023494;28;20039;-83
2021/05/13 04:29:08;;;;;;;25.63;10.15;;;9.40;93.80;;;;;;5040543;28;20559;-82
2021/05/13 04:31:34;;;;;;;21.70;9.45;;;9.40;93.80;;;;;;5015527;28;20562;-83
2021/05/13 04:34:00;;;;;;;27.40;10.85;;;9.40;93.80;;;;;;4998196;28;20036;-83
2021/05/13 04:36:27;;;;;;;26.38;9.55;;;9.40;93.80;;;;;;5024112;28;20083;-82
2021/05/13 04:38:53;;;;;;;25.38;9.68;;;9.40;93.80;;;;;;5012907;28;20025;-82
2021/05/13 04:41:19;;;;;;;25.60;9.25;;;9.40;93.80;;;;;;5013584;28;20040;-82
2021/05/13 04:43:45;;;;;;;22.25;9.23;;;9.40;93.80;;;;;;5037445;28;20044;-81
2021/05/13 04:46:11;;;;;;;22.55;9.93;;;9.40;93.80;;;;;;5046411;28;20128;-82
2021/05/13 04:51:19;;;;;;;21.80;8.95;;;9.40;93.80;;;;;;5041635;28;20261;-82
2021/05/13 04:53:47;;;;;;;21.52;8.82;;;9.50;93.90;;;;;;5017708;28;20052;-80
2021/05/13 04:56:13;;;;;;;22.35;10.07;;;9.50;93.80;;;;;;5020595;28;20144;-78
2021/05/13 04:58:39;;;;;;;22.40;10.93;;;9.50;93.70;;;;;;5035620;28;20037;-82
2021/05/13 05:01:05;;;;;;;20.20;8.68;;;9.60;93.70;;;;;;5036915;28;20036;-82
2021/05/13 05:03:32;;;;;;;18.58;8.50;;;9.70;93.70;;;;;;5018018;28;20037;-82
2021/05/13 05:05:58;;;;;;;19.58;8.68;;;9.70;93.50;;;;;;5020487;28;20044;-80
2021/05/13 05:08:24;;;;;;;23.33;8.57;;;9.70;93.40;;;;;;5002392;28;20037;-83
2021/05/13 05:10:49;;;;;;;23.80;8.48;;;9.80;93.30;;;;;;5015810;28;20040;-80
2021/05/13 05:13:16;;;;;;;20.25;8.85;;;9.90;93.20;;;;;;5013974;28;20575;-82
2021/05/13 05:15:42;;;;;;;19.45;9.13;;;9.90;93.10;;;;;;5037540;28;20123;-80
2021/05/13 05:18:07;;;;;;;18.13;7.80;;;10.00;93.00;;;;;;5015835;28;20630;-81
2021/05/13 05:20:33;;;;;;;18.65;7.82;;;10.10;92.90;;;;;;5019329;28;20373;-82
2021/05/13 05:22:59;;;;;;;18.55;8.70;;;10.10;92.80;;;;;;5040857;28;20025;-81
2021/05/13 05:25:25;;;;;;;17.38;7.18;;;10.20;93.10;;;;;;5019785;28;20045;-82
2021/05/13 05:27:51;;;;;;;20.52;7.43;;;10.20;92.70;;;;;;5039379;28;20037;-80
2021/05/13 05:30:17;;;;;;;19.08;7.15;;;10.30;92.50;;;;;;5041107;28;20029;-80
2021/05/13 05:32:43;;;;;;;13.85;6.20;;;10.30;92.30;;;;;;4998460;28;20040;-79
2021/05/13 05:35:09;;;;;;;14.75;6.75;;;10.40;92.10;;;;;;5016888;28;20033;-81
2021/05/13 05:37:38;;;;;;;14.32;6.22;;;10.50;91.90;;;;;;5045005;28;20507;-82
2021/05/13 05:40:05;;;;;;;21.83;6.60;;;10.50;91.70;;;;;;5027657;28;20522;-81
2021/05/13 05:42:31;;;;;;;18.63;6.75;;;10.60;91.60;;;;;;5015701;28;20064;-79
2021/05/13 05:44:59;;;;;;;15.30;6.45;;;10.60;91.40;;;;;;5010006;28;20039;-81
2021/05/13 05:47:27;;;;;;;15.15;6.28;;;10.60;91.50;;;;;;5037673;28;20047;-84
2021/05/13 05:49:54;;;;;;;15.82;6.25;;;10.70;91.60;;;;;;5017833;28;20032;-83
2021/05/13 05:52:20;;;;;;;14.90;6.60;;;10.80;91.60;;;;;;5006914;28;20037;-82
2021/05/13 05:54:46;;;;;;;16.52;6.43;;;10.80;91.50;;;;;;5017548;28;20041;-82
2021/05/13 05:57:12;;;;;;;13.45;5.47;;;11.00;91.50;;;;;;5005991;28;20037;-79
2021/05/13 05:59:39;;;;;;;15.98;5.68;;;11.00;91.20;;;;;;5002307;28;20514;-81
2021/05/13 06:02:05;;;;;;;14.82;5.15;;;11.10;90.90;;;;;;5020585;28;20117;-83
2021/05/13 06:04:34;;;;;;;12.60;5.28;;;11.20;90.60;;;;;;5021116;28;20055;-82
2021/05/13 06:07:01;;;;;;;12.60;5.57;;;11.20;90.40;;;;;;5029980;28;20041;-81
2021/05/13 06:09:28;;;;;;;14.13;5.05;;;11.20;90.40;;;;;;5026674;28;20123;-84
2021/05/13 06:11:54;;;;;;;14.77;6.00;;;11.40;90.60;;;;;;5041685;28;20167;-84
2021/05/13 06:14:20;;;;;;;13.25;4.95;;;11.40;90.50;;;;;;5023318;28;20112;-81
2021/05/13 06:16:46;;;;;;;11.07;5.45;;;11.50;90.40;;;;;;5043127;28;20029;-83
2021/05/13 06:19:14;;;;;;;17.73;5.55;;;11.60;90.10;;;;;;5019684;28;20033;-82
2021/05/13 06:21:40;;;;;;;10.10;5.30;;;11.60;90.00;;;;;;5044099;28;20037;-82
2021/05/13 06:24:09;;;;;;;12.05;5.25;;;11.60;90.00;;;;;;5006075;28;20035;-82
2021/05/13 06:26:36;;;;;;;9.40;4.60;;;11.60;90.10;;;;;;5051392;28;20064;-82
2021/05/13 06:29:07;;;;;;;13.18;4.93;;;11.70;89.50;;;;;;5018276;28;20221;-82
2021/05/13 06:31:35;;;;;;;10.40;4.55;;;11.70;89.70;;;;;;5061247;28;20059;-80
2021/05/13 06:34:02;;;;;;;13.27;4.43;;;11.70;89.60;;;;;;5025245;28;20083;-82
2021/05/13 06:36:31;;;;;;;15.27;5.03;;;11.70;89.50;;;;;;5044240;28;20036;-82
2021/05/13 06:38:58;;;;;;;11.15;5.07;;;11.70;89.50;;;;;;5007285;28;20129;-84
2021/05/13 06:41:24;;;;;;;10.50;4.82;;;11.70;89.80;;;;;;5025951;28;20104;-84
2021/05/13 06:43:49;;;;;;;9.07;4.90;;;11.70;89.20;;;;;;5023592;28;20037;-84
2021/05/13 06:46:16;;;;;;;10.38;4.57;;;11.70;89.00;;;;;;5006037;28;20051;-84
2021/05/13 06:48:44;;;;;;;9.32;4.13;;;11.70;88.20;;;;;;5012385;28;20437;-83
2021/05/13 06:51:10;;;;;;;8.68;3.97;;;11.70;87.80;;;;;;5026765;28;20032;-83
2021/05/13 06:53:40;;;;;;;11.85;5.22;;;11.70;88.00;;;;;;5040218;28;20031;-82
2021/05/13 06:56:05;;;;;;;7.30;3.80;;;11.80;87.40;;;;;;5024185;28;20602;-84
2021/05/13 06:58:31;;;;;;;9.43;4.15;;;11.90;86.80;;;;;;5035183;28;20032;-84
2021/05/13 07:00:57;;;;;;;12.15;4.38;;;12.10;86.10;;;;;;5042723;28;20067;-83
2021/05/13 07:03:23;;;;;;;11.27;3.90;;;12.30;86.30;;;;;;5026399;28;20037;-82
2021/05/13 07:05:49;;;;;;;7.90;3.65;;;12.40;86.00;;;;;;5010033;28;20150;-83
2021/05/13 07:08:15;;;;;;;7.10;3.40;;;12.50;84.70;;;;;;5008410;28;20111;-82
2021/05/13 07:10:41;;;;;;;9.55;3.28;;;12.60;84.30;;;;;;5018699;28;20037;-81
2021/05/13 07:13:07;;;;;;;9.88;3.17;;;12.70;84.10;;;;;;5036122;28;20087;-83
2021/05/13 07:15:33;;;;;;;8.98;2.90;;;12.70;83.60;;;;;;5040354;28;20041;-83
2021/05/13 07:17:59;;;;;;;6.82;3.38;;;12.80;82.90;;;;;;5026614;28;20037;-82
2021/05/13 07:20:25;;;;;;;7.18;3.00;;;12.90;81.30;;;;;;5035927;28;20120;-82
2021/05/13 07:22:52;;;;;;;9.02;3.53;;;12.80;81.70;;;;;;5041016;28;20032;-83
2021/05/13 07:25:19;;;;;;;13.23;2.92;;;12.90;80.80;;;;;;5051092;28;20408;-84
2021/05/13 07:27:45;;;;;;;8.48;2.95;;;12.90;80.60;;;;;;5047173;28;20465;-82
2021/05/13 07:30:12;;;;;;;6.47;2.20;;;12.80;80.60;;;;;;5056890;28;20039;-83
2021/05/13 07:32:39;;;;;;;6.70;2.40;;;12.90;80.40;;;;;;5065325;28;20132;-83
2021/05/13 07:35:06;;;;;;;7.35;2.78;;;12.90;80.50;;;;;;5045436;28;20033;-82
2021/05/13 07:37:32;;;;;;;8.95;2.63;;;13.10;80.80;;;;;;5049620;28;20053;-83
2021/05/13 07:39:58;;;;;;;7.65;2.47;;;13.10;81.00;;;;;;5045354;28;20064;-81
2021/05/13 07:42:24;;;;;;;8.35;2.78;;;13.20;79.70;;;;;;5028015;28;20444;-83
2021/05/13 07:44:50;;;;;;;11.80;3.15;;;13.30;79.90;;;;;;5054774;28;20037;-83
2021/05/13 07:47:18;;;;;;;9.85;2.50;;;13.30;79.40;;;;;;5047236;28;20049;-83
2021/05/13 07:49:44;;;;;;;11.15;2.88;;;13.40;80.10;;;;;;5034110;28;20025;-80
2021/05/13 07:52:10;;;;;;;9.18;2.42;;;13.40;80.80;;;;;;5014528;28;20041;-81
2021/05/13 07:54:36;;;;;;;6.97;2.20;;;13.50;80.30;;;;;;5027466;28;20056;-83
2021/05/13 07:57:03;;;;;;;12.00;2.53;;;13.50;77.90;;;;;;5021138;28;20236;-81
2021/05/13 07:59:29;;;;;;;8.73;2.50;;;13.40;77.50;;;;;;5042717;28;20033;-84
2021/05/13 08:01:57;;;;;;;5.60;1.80;;;13.40;78.10;;;;;;5013125;28;20400;-80
2021/05/13 08:04:23;;;;;;;6.93;2.40;;;13.50;77.80;;;;;;5032715;28;20025;-83
2021/05/13 08:06:49;;;;;;;7.82;3.03;;;13.60;77.50;;;;;;5024941;28;20097;-83
2021/05/13 08:09:15;;;;;;;9.88;2.40;;;13.60;77.30;;;;;;5047076;28;20041;-81
2021/05/13 08:11:41;;;;;;;6.47;2.25;;;13.70;77.20;;;;;;5010621;28;20061;-83
2021/05/13 08:14:06;;;;;;;8.75;2.15;;;13.80;78.20;;;;;;5037657;28;20036;-86
2021/05/13 08:16:33;;;;;;;8.65;2.95;;;13.80;78.10;;;;;;5035490;28;20476;-85
2021/05/13 08:18:58;;;;;;;8.30;2.85;;;13.90;77.60;;;;;;5042659;28;20560;-85
2021/05/13 08:21:24;;;;;;;6.60;2.67;;;13.90;77.30;;;;;;5036574;28;20033;-82
2021/05/13 08:23:50;;;;;;;7.10;2.78;;;13.90;76.30;;;;;;5028599;28;20047;-81
2021/05/13 08:26:16;;;;;;;9.90;3.13;;;14.00;77.00;;;;;;5030190;28;20040;-83
2021/05/13 08:28:42;;;;;;;8.10;3.15;;;14.00;76.50;;;;;;5025743;28;20047;-82
2021/05/13 08:31:08;;;;;;;11.20;3.92;;;14.00;75.40;;;;;;5010458;28;20047;-84
2021/05/13 08:33:33;;;;;;;10.50;3.30;;;14.10;76.00;;;;;;5019379;28;20064;-83
2021/05/13 08:35:59;;;;;;;8.82;3.70;;;14.10;76.40;;;;;;5030515;28;20039;-82
2021/05/13 08:38:25;;;;;;;11.15;3.92;;;14.20;77.10;;;;;;5005589;28;20073;-79
2021/05/13 08:40:52;;;;;;;11.40;3.80;;;14.20;76.40;;;;;;5021511;28;20036;-83
2021/05/13 08:43:25;;;;;;;4.95;2.35;;;14.30;74.80;;;;;;5044565;28;20031;-81
2021/05/13 08:45:52;;;;;;;9.10;3.53;;;14.30;74.00;;;;;;5058143;28;20037;-82
2021/05/13 08:48:25;;;;;;;9.05;3.13;;;14.30;74.20;;;;;;5021516;28;20043;-82
2021/05/13 08:50:51;;;;;;;10.90;3.10;;;14.30;75.00;;;;;;5028132;28;20053;-82
2021/05/13 08:53:18;;;;;;;7.32;3.05;;;14.30;75.50;;;;;;5025284;28;20033;-82
2021/05/13 08:55:43;;;;;;;8.73;2.88;;;14.40;75.10;;;;;;5038661;28;20495;-82
2021/05/13 08:58:09;;;;;;;6.80;2.80;;;14.50;75.20;;;;;;5025302;28;20048;-84
2021/05/13 09:00:35;;;;;;;8.13;2.80;;;14.40;74.30;;;;;;5029480;28;20072;-82
2021/05/13 09:03:01;;;;;;;11.27;3.10;;;14.50;73.80;;;;;;5041700;28;20045;-83
2021/05/13 09:05:27;;;;;;;15.38;3.83;;;14.60;74.10;;;;;;5032623;28;20484;-83
2021/05/13 09:07:54;;;;;;;8.35;4.00;;;14.60;73.30;;;;;;5041854;28;20504;-83
2021/05/13 09:10:22;;;;;;;8.57;3.78;;;14.70;73.70;;;;;;5022176;28;20094;-83
2021/05/13 09:12:50;;;;;;;16.90;4.72;;;14.70;74.50;;;;;;5038601;28;20037;-83
2021/05/13 09:15:24;;;;;;;13.65;4.63;;;14.80;74.40;;;;;;5039967;28;20036;-81
2021/05/13 09:18:00;;;;;;;14.07;5.47;;;14.80;74.00;;;;;;5049508;28;20043;-83
2021/05/13 09:20:32;;;;;;;21.25;4.72;;;14.80;73.60;;;;;;5051194;28;20060;-82
2021/05/13 09:23:16;;;;;;;13.73;4.78;;;14.80;74.10;;;;;;5043400;28;20652;-84
2021/05/13 09:25:45;;;;;;;11.85;4.70;;;14.80;73.10;;;;;;5053822;28;20044;-84
2021/05/13 09:28:11;;;;;;;13.40;4.75;;;14.90;73.60;;;;;;5039731;28;20087;-83
2021/05/13 09:30:37;;;;;;;11.15;3.97;;;14.90;74.20;;;;;;5045097;28;20024;-82
2021/05/13 09:33:09;;;;;;;16.08;4.38;;;14.90;74.20;;;;;;5059175;28;20648;-84
2021/05/13 09:35:37;;;;;;;10.35;3.90;;;14.90;73.10;;;;;;5024323;28;20060;-85
2021/05/13 09:38:08;;;;;;;13.48;3.88;;;14.90;73.40;;;;;;5044156;28;20112;-88
2021/05/13 09:40:35;;;;;;;13.13;4.10;;;15.00;72.00;;;;;;5046014;28;20033;-82
2021/05/13 09:43:12;;;;;;;17.42;4.10;;;15.00;71.90;;;;;;5031913;28;20097;-87
2021/05/13 09:45:48;;;;;;;10.65;3.58;;;14.90;73.30;;;;;;5034856;28;20033;-88
2021/05/13 09:48:32;;;;;;;9.63;3.20;;;15.00;73.50;;;;;;5042432;28;20037;-81
2021/05/13 09:51:17;;;;;;;11.35;3.65;;;15.10;73.30;;;;;;5041875;28;20453;-86
2021/05/13 09:53:44;;;;;;;13.50;3.92;;;15.20;70.70;;;;;;5050579;28;20414;-83
2021/05/13 09:56:28;;;;;;;11.23;3.50;;;15.20;71.70;;;;;;5049423;28;20040;-84
2021/05/13 09:58:54;;;;;;;12.25;4.00;;;15.20;71.80;;;;;;5039241;28;20171;-82
2021/05/13 10:01:20;;;;;;;13.57;3.95;;;15.20;71.90;;;;;;5042909;28;20033;-82
2021/05/13 10:03:48;;;;;;;15.27;3.88;;;15.20;71.00;;;;;;5050387;28;20052;-84
2021/05/13 10:06:14;;;;;;;12.15;4.13;;;15.20;71.30;;;;;;5048667;28;20090;-85
2021/05/13 10:08:43;;;;;;;10.73;2.85;;;15.30;71.50;;;;;;5029119;28;20069;-86
2021/05/13 10:11:14;;;;;;;8.90;2.83;;;15.30;71.20;;;;;;5053813;28;20601;-82
2021/05/13 10:13:40;;;;;;;13.50;3.80;;;15.40;69.60;;;;;;5045082;28;20286;-84
2021/05/13 10:16:06;;;;;;;8.38;2.22;;;15.40;69.50;;;;;;5040731;28;20057;-83
2021/05/13 10:18:39;;;;;;;9.95;3.03;;;15.40;69.20;;;;;;5021621;28;20243;-85
2021/05/13 10:21:22;;;;;;;9.85;2.38;;;15.50;68.50;;;;;;5053458;28;20108;-84
2021/05/13 10:23:50;;;;;;;9.80;2.63;;;15.60;67.60;;;;;;5058600;28;20055;-83
2021/05/13 10:26:37;;;;;;;8.52;2.63;;;15.60;68.60;;;;;;5036718;28;20045;-86
2021/05/13 10:29:22;;;;;;;7.97;2.42;;;15.60;67.50;;;;;;5040020;28;20036;-83
2021/05/13 10:32:07;;;;;;;7.85;1.85;;;15.70;67.10;;;;;;5043139;28;20044;-83
2021/05/13 10:34:43;;;;;;;9.85;3.20;;;15.80;66.50;;;;;;5042412;28;20044;-81
2021/05/13 10:37:16;;;;;;;12.52;2.78;;;15.80;64.50;;;;;;5061368;28;20036;-83
2021/05/13 10:40:21;;;;;;;6.10;2.13;;;15.90;66.10;;;;;;5045137;28;20175;-85
2021/05/13 10:42:58;;;;;;;8.48;2.72;;;16.00;64.60;;;;;;5047838;28;20036;-82
2021/05/13 10:45:23;;;;;;;9.25;2.30;;;16.00;64.20;;;;;;5060442;28;20033;-84
2021/05/13 10:48:09;;;;;;;6.07;2.20;;;16.00;65.40;;;;;;5051176;28;20037;-81
2021/05/13 10:50:47;;;;;;;8.07;2.60;;;16.10;64.20;;;;;;5044715;28;20112;-88
2021/05/13 10:53:35;;;;;;;9.60;2.25;;;16.10;64.40;;;;;;5031942;28;20041;-84
2021/05/13 10:56:15;;;;;;;11.57;2.90;;;16.10;65.80;;;;;;5041145;28;20179;-84
2021/05/13 10:59:00;;;;;;;7.85;2.40;;;16.20;66.00;;;;;;5028888;28;20459;-83
2021/05/13 11:01:33;;;;;;;6.78;2.00;;;16.20;64.50;;;;;;5050954;28;20119;-82
2021/05/13 11:04:17;;;;;;;;;;;16.20;66.00;;;;;;5058394;28;20499;-82
2021/05/13 11:06:44;;;;;;;8.20;2.80;;;16.10;66.00;;;;;;5062919;28;19916;-83
2021/05/13 11:09:10;;;;;;;9.07;2.35;;;16.10;66.00;;;;;;5050833;28;20041;-80
2021/05/13 11:12:11;;;;;;;9.82;2.40;;;16.20;65.80;;;;;;5043806;28;20102;-84
2021/05/13 11:15:00;;;;;;;8.50;1.98;;;16.20;64.50;;;;;;5035038;28;20111;-82
2021/05/13 11:18:04;;;;;;;9.05;2.30;;;16.20;64.30;;;;;;5055277;28;20037;-82
2021/05/13 11:20:40;;;;;;;8.50;1.90;;;16.20;63.60;;;;;;5042464;28;20047;-85
2021/05/13 11:23:19;;;;;;;4.63;1.75;;;16.30;63.60;;;;;;5036751;28;20033;-87
2021/05/13 11:25:51;;;;;;;8.13;2.17;;;16.40;63.60;;;;;;5060334;28;20045;-85
2021/05/13 11:28:39;;;;;;;6.63;2.30;;;16.40;63.50;;;;;;5042887;28;20499;-81
2021/05/13 11:31:05;;;;;;;8.15;2.00;;;16.50;63.20;;;;;;5022673;28;20033;-86
2021/05/13 11:33:58;;;;;;;7.60;1.85;;;16.50;63.50;;;;;;5044597;28;20412;-85
2021/05/13 11:36:24;;;;;;;6.57;2.10;;;16.50;61.80;;;;;;5034317;28;20056;-84
2021/05/13 11:38:53;;;;;;;12.90;2.33;;;16.50;63.30;;;;;;5033434;28;20562;-82
2021/05/13 11:41:19;;;;;;;16.15;5.15;;;16.70;63.30;;;;;;5045108;28;20492;-83
2021/05/13 11:43:46;;;;;;;21.92;5.40;;;16.80;63.00;;;;;;5029896;28;20037;-82
2021/05/13 11:46:16;;;;;;;10.98;2.92;;;16.80;63.30;;;;;;5030209;28;20052;-83
2021/05/13 11:48:43;;;;;;;6.15;1.98;;;17.00;62.20;;;;;;5050549;28;20033;-82
2021/05/13 11:51:35;;;;;;;5.97;1.80;;;17.00;62.20;;;;;;5024360;28;20099;-84
2021/05/13 11:54:07;;;;;;;6.97;1.80;;;17.00;62.60;;;;;;5027844;28;20488;-85
2021/05/13 11:56:36;;;;;;;5.82;2.17;;;17.00;62.40;;;;;;5019568;28;20043;-84
2021/05/13 11:59:03;;;;;;;7.15;2.50;;;17.20;62.70;;;;;;5044382;28;20025;-85
2021/05/13 12:01:36;;;;;;;6.55;1.70;;;17.30;62.70;;;;;;5028187;28;20041;-85
2021/05/13 12:04:04;;;;;;;7.43;2.05;;;17.40;61.90;;;;;;5040503;28;20056;-84
2021/05/13 12:07:02;;;;;;;6.28;2.58;;;17.30;62.20;;;;;;5047945;28;20064;-85
2021/05/13 12:09:33;;;;;;;9.32;2.22;;;17.30;61.40;;;;;;5046469;28;20052;-86
2021/05/13 12:12:03;;;;;;;6.78;1.88;;;17.30;63.10;;;;;;5039618;28;20032;-83
2021/05/13 12:14:32;;;;;;;6.43;1.90;;;17.30;61.80;;;;;;5034489;28;20094;-82
2021/05/13 12:16:58;;;;;;;5.35;2.03;;;17.40;61.50;;;;;;5043303;28;20040;-85
2021/05/13 12:19:25;;;;;;;5.43;1.95;;;17.50;61.60;;;;;;5063485;28;20061;-82
2021/05/13 12:21:53;;;;;;;10.18;3.00;;;17.70;61.50;;;;;;5029939;28;20246;-82
2021/05/13 12:24:35;;;;;;;8.43;2.55;;;17.70;60.00;;;;;;5060591;28;20403;-86
2021/05/13 12:27:01;;;;;;;9.48;2.28;;;17.60;59.40;;;;;;5032795;28;20041;-89
2021/05/13 12:29:28;;;;;;;9.45;2.35;;;17.50;60.60;;;;;;5031667;28;20159;-84
2021/05/13 12:31:54;;;;;;;10.68;3.15;;;17.60;61.20;;;;;;5035056;28;20029;-83
2021/05/13 12:34:42;;;;;;;8.05;2.50;;;17.60;61.50;;;;;;5016437;28;20483;-86
2021/05/13 12:37:21;;;;;;;10.57;2.53;;;17.70;59.40;;;;;;5045722;28;20198;-86
2021/05/13 12:39:47;;;;;;;8.57;3.78;;;17.80;60.60;;;;;;5036067;28;20479;-84
2021/05/13 12:42:30;;;;;;;8.05;3.05;;;17.90;61.00;;;;;;5032280;28;20036;-81
2021/05/13 12:45:21;;;;;;;7.60;2.35;;;18.00;60.00;;;;;;5042599;28;20120;-83
2021/05/13 12:48:03;;;;;;;8.50;2.15;;;18.10;59.00;;;;;;5061904;28;20059;-86
2021/05/13 12:50:30;;;;;;;7.60;2.47;;;18.10;59.00;;;;;;5067512;28;20442;-85
2021/05/13 12:53:11;;;;;;;6.95;2.03;;;18.10;59.20;;;;;;5052256;28;20524;-83
2021/05/13 12:55:39;;;;;;;6.13;2.33;;;18.20;57.20;;;;;;5027012;28;20055;-83
2021/05/13 12:58:13;;;;;;;5.80;2.33;;;18.20;57.50;;;;;;5034107;28;20028;-90
2021/05/13 13:00:40;;;;;;;6.68;2.08;;;18.20;57.70;;;;;;5052352;28;20044;-86
2021/05/13 13:03:08;;;;;;;8.18;2.40;;;18.30;57.50;;;;;;5048353;28;20033;-82